createdAt,value
2019-03-20T00:02:19.398Z,59.50
2019-03-20T00:04:51.416Z,61.48
2019-03-20T00:07:24.076Z,56.20
2019-03-20T00:09:56.039Z,62.67
2019-03-20T00:12:28.196Z,66.00
2019-03-20T00:15:00.545Z,66.20
2019-03-20T00:17:32.618Z,63.25
2019-03-20T00:20:04.965Z,62.90
2019-03-20T00:22:37.767Z,68.87
2019-03-20T00:25:12.582Z,77.05
2019-03-20T00:27:44.934Z,67.50
2019-03-20T00:30:19.819Z,63.70
2019-03-20T00:32:52.399Z,65.78
2019-03-20T00:35:28.097Z,83.75
2019-03-20T00:38:00.515Z,70.52
2019-03-20T00:40:32.663Z,72.22
2019-03-20T00:43:04.832Z,67.70
2019-03-20T00:45:37.637Z,78.55
2019-03-20T00:48:09.676Z,73.40
2019-03-20T00:50:41.827Z,74.20
2019-03-20T00:53:14.500Z,80.60
2019-03-20T00:55:46.826Z,81.63
2019-03-20T00:58:19.078Z,74.90
2019-03-20T01:00:51.794Z,77.78
2019-03-20T01:03:23.919Z,79.05
2019-03-20T01:05:57.093Z,68.47
2019-03-20T01:08:29.488Z,75.20
2019-03-20T01:11:01.714Z,76.90
2019-03-20T01:13:33.831Z,77.25
2019-03-20T01:16:06.002Z,75.17
2019-03-20T01:18:37.925Z,72.08
2019-03-20T01:21:09.792Z,73.37
2019-03-20T01:23:43.352Z,73.50
2019-03-20T01:26:15.399Z,77.67
2019-03-20T01:28:47.481Z,71.28
2019-03-20T01:31:19.591Z,85.38
2019-03-20T01:33:52.048Z,79.03
2019-03-20T01:36:25.296Z,75.17
2019-03-20T01:38:57.804Z,76.07
2019-03-20T01:41:37.645Z,76.75
2019-03-20T01:44:06.614Z,75.25
2019-03-20T01:46:39.860Z,78.45
2019-03-20T01:49:12.415Z,78.00
2019-03-20T01:51:44.466Z,81.67
2019-03-20T01:54:16.655Z,75.35
2019-03-20T01:56:52.041Z,80.92
2019-03-20T01:59:27.762Z,75.62
2019-03-20T02:02:00.738Z,73.33
2019-03-20T02:05:05.078Z,68.57
2019-03-20T02:07:37.676Z,74.17
2019-03-20T02:10:13.127Z,76.20
2019-03-20T02:12:51.176Z,74.47
2019-03-20T02:15:57.195Z,70.03
2019-03-20T02:18:01.267Z,71.80
2019-03-20T02:20:33.508Z,68.12
2019-03-20T02:23:05.834Z,61.60
2019-03-20T02:25:37.883Z,62.08
2019-03-20T02:28:10.147Z,63.08
2019-03-20T02:30:42.927Z,61.05
2019-03-20T02:33:18.384Z,66.17
2019-03-20T02:35:53.225Z,60.38
2019-03-20T02:38:38.351Z,66.67
2019-03-20T02:41:12.905Z,60.67
2019-03-20T02:43:45.381Z,59.03
2019-03-20T02:46:17.745Z,61.18
2019-03-20T02:48:49.944Z,60.28
2019-03-20T02:51:22.508Z,60.30
2019-03-20T02:54:13.754Z,59.67
2019-03-20T02:56:45.666Z,54.65
2019-03-20T02:59:36.931Z,54.95
2019-03-20T03:02:12.250Z,52.88
2019-03-20T03:04:44.340Z,52.13
2019-03-20T03:07:18.897Z,54.50
2019-03-20T03:09:57.187Z,54.45
2019-03-20T03:12:29.291Z,56.77
2019-03-20T03:15:04.691Z,53.42
2019-03-20T03:17:56.551Z,51.02
2019-03-20T03:20:31.632Z,51.88
2019-03-20T03:23:03.890Z,56.20
2019-03-20T03:25:36.148Z,58.02
2019-03-20T03:28:08.434Z,55.88
2019-03-20T03:30:43.431Z,54.08
2019-03-20T03:33:15.842Z,51.05
2019-03-20T03:35:48.029Z,50.10
2019-03-20T03:38:20.836Z,54.90
2019-03-20T03:40:53.724Z,51.35
2019-03-20T03:43:26.195Z,59.35
2019-03-20T03:46:01.131Z,57.40
2019-03-20T03:48:33.220Z,50.28
2019-03-20T03:51:05.626Z,50.28
2019-03-20T03:53:40.174Z,49.38
2019-03-20T03:56:11.988Z,47.30
2019-03-20T03:58:44.049Z,50.92
2019-03-20T04:01:17.946Z,49.88
2019-03-20T04:03:50.114Z,52.40
2019-03-20T04:06:35.002Z,49.70
2019-03-20T04:08:57.370Z,62.53
2019-03-20T04:11:32.604Z,45.85
2019-03-20T04:14:13.613Z,47.35
2019-03-20T04:16:58.584Z,43.52
2019-03-20T04:19:30.590Z,51.63
2019-03-20T04:22:02.622Z,49.30
2019-03-20T04:24:34.773Z,43.95
2019-03-20T04:27:11.041Z,46.40
2019-03-20T04:29:43.901Z,41.77
2019-03-20T04:32:16.239Z,43.65
2019-03-20T04:34:48.293Z,43.08
2019-03-20T04:37:21.346Z,42.67
2019-03-20T04:39:53.392Z,47.05
2019-03-20T04:42:26.606Z,45.90
2019-03-20T04:45:00.453Z,44.45
2019-03-20T04:47:32.568Z,45.63
2019-03-20T04:50:13.322Z,41.45
2019-03-20T04:52:45.260Z,40.83
2019-03-20T04:55:17.558Z,41.37
2019-03-20T04:58:08.598Z,43.78
2019-03-20T05:00:41.308Z,42.78
2019-03-20T05:03:13.843Z,40.12
2019-03-20T05:05:46.242Z,40.98
2019-03-20T05:08:18.288Z,41.80
2019-03-20T05:10:50.556Z,44.18
2019-03-20T05:13:24.029Z,39.73
2019-03-20T05:15:56.824Z,39.45
2019-03-20T05:18:29.186Z,44.03
2019-03-20T05:21:01.419Z,42.00
2019-03-20T05:23:33.489Z,38.48
2019-03-20T05:26:05.823Z,39.25
2019-03-20T05:28:47.040Z,39.13
2019-03-20T05:31:19.173Z,41.50
2019-03-20T05:33:51.364Z,40.43
2019-03-20T05:36:42.277Z,39.90
2019-03-20T05:39:15.931Z,40.43
2019-03-20T05:41:48.520Z,42.20
2019-03-20T05:44:21.620Z,36.53
2019-03-20T05:46:57.500Z,39.03
2019-03-20T05:49:29.686Z,44.30
2019-03-20T05:52:02.267Z,37.75
2019-03-20T05:54:34.581Z,42.10
2019-03-20T05:57:06.633Z,37.83
2019-03-20T05:59:38.602Z,38.53
2019-03-20T06:02:10.566Z,40.15
2019-03-20T06:04:44.884Z,38.45
2019-03-20T06:07:21.591Z,38.75
2019-03-20T06:09:50.846Z,52.23
2019-03-20T06:12:23.461Z,39.78
2019-03-20T06:14:55.838Z,37.90
2019-03-20T06:17:27.783Z,37.98
2019-03-20T06:20:00.529Z,37.93
2019-03-20T06:22:32.843Z,35.40
2019-03-20T06:25:06.361Z,37.30
2019-03-20T06:27:38.482Z,43.05
2019-03-20T06:30:20.381Z,35.95
2019-03-20T06:32:47.891Z,36.20
2019-03-20T06:35:23.878Z,34.73
2019-03-20T06:37:58.821Z,33.95
2019-03-20T06:40:45.310Z,32.80
2019-03-20T06:43:21.830Z,33.45
2019-03-20T06:45:56.367Z,31.37
2019-03-20T06:48:29.579Z,29.40
2019-03-20T06:51:01.919Z,33.50
2019-03-20T06:53:33.933Z,33.73
2019-03-20T06:56:05.649Z,32.33
2019-03-20T06:58:37.751Z,34.95
2019-03-20T07:01:30.468Z,31.62
2019-03-20T07:04:06.090Z,31.85
2019-03-20T07:06:41.482Z,33.95
2019-03-20T07:09:17.143Z,33.48
2019-03-20T07:11:50.265Z,34.53
2019-03-20T07:14:23.399Z,29.48
2019-03-20T07:16:55.482Z,29.45
2019-03-20T07:19:27.721Z,31.87
2019-03-20T07:22:04.963Z,31.70
2019-03-20T07:24:37.123Z,27.60
2019-03-20T07:27:09.308Z,29.02
2019-03-20T07:29:41.678Z,28.42
2019-03-20T07:32:14.024Z,28.30
2019-03-20T07:34:46.295Z,27.37
2019-03-20T07:37:18.721Z,34.65
2019-03-20T07:39:50.951Z,33.90
2019-03-20T07:42:23.003Z,29.05
2019-03-20T07:44:56.335Z,29.85
2019-03-20T07:47:56.597Z,29.98
2019-03-20T07:50:29.679Z,29.82
2019-03-20T07:53:02.026Z,30.77
2019-03-20T07:55:34.045Z,26.75
2019-03-20T07:58:06.774Z,28.57
2019-03-20T08:00:39.224Z,31.85
2019-03-20T08:03:11.456Z,31.10
2019-03-20T08:05:43.813Z,29.85
2019-03-20T08:08:18.736Z,28.57
2019-03-20T08:10:52.050Z,29.98
2019-03-20T08:13:24.527Z,29.07
2019-03-20T08:15:56.853Z,28.00
2019-03-20T08:18:30.118Z,32.23
2019-03-20T08:21:02.763Z,29.42
2019-03-20T08:23:35.302Z,27.07
2019-03-20T08:26:07.355Z,32.90
2019-03-20T08:28:40.331Z,28.47
2019-03-20T08:31:12.449Z,31.07
2019-03-20T08:33:45.080Z,28.52
2019-03-20T08:36:17.135Z,33.20
2019-03-20T08:38:49.239Z,31.35
2019-03-20T08:41:22.293Z,29.63
2019-03-20T08:43:54.206Z,28.65
2019-03-20T08:46:47.771Z,31.35
2019-03-20T08:49:20.990Z,32.70
2019-03-20T08:51:53.225Z,31.48
2019-03-20T08:54:25.290Z,34.00
2019-03-20T08:56:57.915Z,31.95
2019-03-20T08:59:30.207Z,33.48
2019-03-20T09:02:02.386Z,30.43
2019-03-20T09:04:36.836Z,32.25
2019-03-20T09:07:10.481Z,32.13
2019-03-20T09:09:44.887Z,30.25
2019-03-20T09:12:17.318Z,34.90
2019-03-20T09:14:49.452Z,32.75
2019-03-20T09:17:21.606Z,30.68
2019-03-20T09:19:54.152Z,29.63
2019-03-20T09:22:26.218Z,33.67
2019-03-20T09:25:09.919Z,27.02
2019-03-20T09:28:08.847Z,32.73
2019-03-20T09:30:40.836Z,29.52
2019-03-20T09:33:12.987Z,28.73
2019-03-20T09:35:45.095Z,40.12
2019-03-20T09:38:17.558Z,28.32
2019-03-20T09:40:51.040Z,33.53
2019-03-20T09:43:23.914Z,33.20
2019-03-20T09:45:56.986Z,29.15
2019-03-20T09:48:30.231Z,34.35
2019-03-20T09:51:02.998Z,31.95
2019-03-20T09:53:35.045Z,32.83
2019-03-20T09:56:08.500Z,35.88
2019-03-20T09:58:41.281Z,30.00
2019-03-20T10:01:13.466Z,34.00
2019-03-20T10:03:45.656Z,35.20
2019-03-20T10:06:17.761Z,36.70
2019-03-20T10:08:53.947Z,30.48
2019-03-20T10:11:23.809Z,30.68
2019-03-20T10:13:55.694Z,31.00
2019-03-20T10:16:27.847Z,34.15
2019-03-20T10:19:00.572Z,29.02
2019-03-20T10:21:37.222Z,38.23
2019-03-20T10:24:09.301Z,31.15
2019-03-20T10:26:50.097Z,38.05
2019-03-20T10:29:41.132Z,31.60
2019-03-20T10:32:14.000Z,35.65
2019-03-20T10:34:46.373Z,38.23
2019-03-20T10:37:19.069Z,43.13
2019-03-20T10:40:15.072Z,29.02
2019-03-20T10:42:47.765Z,31.07
2019-03-20T10:45:20.903Z,29.20
2019-03-20T10:47:55.074Z,30.90
2019-03-20T10:50:29.626Z,36.77
2019-03-20T10:53:15.521Z,41.80
2019-03-20T10:55:48.886Z,51.75
2019-03-20T10:58:20.769Z,41.98
2019-03-20T11:01:00.476Z,39.58
2019-03-20T11:03:33.174Z,33.48
2019-03-20T11:06:05.755Z,35.35
2019-03-20T11:08:37.928Z,39.85
2019-03-20T11:11:10.244Z,30.60
2019-03-20T11:13:51.778Z,30.23
2019-03-20T11:16:24.303Z,37.63
2019-03-20T11:19:08.158Z,39.42
2019-03-20T11:21:40.702Z,40.20
2019-03-20T11:24:16.017Z,38.42
2019-03-20T11:26:51.370Z,35.90
2019-03-20T11:29:44.171Z,41.60
2019-03-20T11:32:19.090Z,47.17
2019-03-20T11:34:50.192Z,45.05
2019-03-20T11:37:22.782Z,35.52
2019-03-20T11:39:56.395Z,41.77
2019-03-20T11:42:29.906Z,37.50
2019-03-20T11:45:01.979Z,39.53
2019-03-20T11:47:34.073Z,34.95
2019-03-20T11:50:08.352Z,38.63
2019-03-20T11:52:41.020Z,45.38
2019-03-20T11:55:13.990Z,49.65
2019-03-20T11:57:46.291Z,34.78
2019-03-20T12:00:20.986Z,39.95
2019-03-20T12:02:54.074Z,36.93
2019-03-20T12:05:26.085Z,46.68
2019-03-20T12:07:58.222Z,44.00
2019-03-20T12:10:32.568Z,43.08
2019-03-20T12:13:04.848Z,49.67
2019-03-20T12:15:36.705Z,45.23
2019-03-20T12:18:09.349Z,52.00
2019-03-20T12:20:47.042Z,47.88
2019-03-20T12:23:19.727Z,47.88
2019-03-20T12:25:51.819Z,46.05
2019-03-20T12:28:24.285Z,42.53
2019-03-20T12:30:56.683Z,39.42
2019-03-20T12:33:31.981Z,42.73
2019-03-20T12:36:04.559Z,45.10
2019-03-20T12:38:36.954Z,43.13
2019-03-20T12:41:09.461Z,47.45
2019-03-20T12:43:42.121Z,51.92
2019-03-20T12:46:15.559Z,46.88
2019-03-20T12:48:47.759Z,46.53
2019-03-20T12:51:19.977Z,44.10
2019-03-20T12:53:52.081Z,39.05
2019-03-20T12:56:25.067Z,44.45
2019-03-20T12:58:57.062Z,48.95
2019-03-20T13:01:29.866Z,39.55
2019-03-20T13:04:12.482Z,43.15
2019-03-20T13:06:44.359Z,39.30
2019-03-20T13:09:21.120Z,42.10
2019-03-20T13:11:53.413Z,46.50
2019-03-20T13:14:25.667Z,44.67
2019-03-20T13:17:07.855Z,40.52
2019-03-20T13:19:39.779Z,42.93
2019-03-20T13:22:11.986Z,35.75
2019-03-20T13:24:44.687Z,41.75
2019-03-20T13:27:16.963Z,42.95
2019-03-20T13:29:49.614Z,46.50
2019-03-20T13:32:22.818Z,43.48
2019-03-20T13:34:55.010Z,47.93
2019-03-20T13:37:47.387Z,46.73
2019-03-20T13:40:19.408Z,50.40
2019-03-20T13:42:51.448Z,47.33
2019-03-20T13:45:26.240Z,44.42
2019-03-20T13:47:58.188Z,46.02
2019-03-20T13:50:30.968Z,54.90
2019-03-20T13:53:03.710Z,48.63
2019-03-20T13:55:35.702Z,53.73
2019-03-20T13:58:08.397Z,51.48
2019-03-20T14:00:40.715Z,53.33
2019-03-20T14:03:16.403Z,55.23
2019-03-20T14:05:48.686Z,53.92
2019-03-20T14:08:20.929Z,49.08
2019-03-20T14:10:52.961Z,49.63
2019-03-20T14:13:25.272Z,50.30
2019-03-20T14:16:06.579Z,52.08
2019-03-20T14:18:39.358Z,52.60
2019-03-20T14:21:11.583Z,50.50
2019-03-20T14:23:43.621Z,53.08
2019-03-20T14:26:15.884Z,53.42
2019-03-20T14:28:50.596Z,53.30
2019-03-20T14:31:22.856Z,52.95
2019-03-20T14:33:55.437Z,52.55
2019-03-20T14:36:27.680Z,55.65
2019-03-20T14:38:59.907Z,58.68
2019-03-20T14:41:32.438Z,57.25
2019-03-20T14:44:04.358Z,55.03
2019-03-20T14:46:36.441Z,50.08
2019-03-20T14:49:11.620Z,55.90
2019-03-20T14:51:44.326Z,54.03
2019-03-20T14:54:16.233Z,53.70
2019-03-20T14:56:48.251Z,66.82
2019-03-20T14:59:33.128Z,60.03
2019-03-20T15:02:05.598Z,57.30
2019-03-20T15:04:37.717Z,53.02
2019-03-20T15:07:10.276Z,52.80
2019-03-20T15:09:42.648Z,56.05
2019-03-20T15:12:14.764Z,53.13
2019-03-20T15:14:46.602Z,52.30
2019-03-20T15:17:18.847Z,52.50
2019-03-20T15:19:51.344Z,56.50
2019-03-20T15:22:23.328Z,56.48
2019-03-20T15:24:55.219Z,52.15
2019-03-20T15:27:27.757Z,50.67
2019-03-20T15:30:02.142Z,55.73
2019-03-20T15:32:35.084Z,52.90
2019-03-20T15:35:08.687Z,48.55
2019-03-20T15:37:42.712Z,55.85
2019-03-20T15:40:18.211Z,54.15
2019-03-20T15:42:50.556Z,50.95
2019-03-20T15:45:22.973Z,54.35
2019-03-20T15:47:54.942Z,50.48
2019-03-20T15:50:29.217Z,60.43
2019-03-20T15:53:01.534Z,60.15
2019-03-20T15:55:37.412Z,61.83
2019-03-20T15:58:10.169Z,48.58
2019-03-20T16:00:44.433Z,56.92
2019-03-20T16:03:19.926Z,53.78
2019-03-20T16:05:51.950Z,52.23
2019-03-20T16:08:24.992Z,61.08
2019-03-20T16:11:06.238Z,63.38
2019-03-20T16:13:31.126Z,56.37
2019-03-20T16:16:03.339Z,53.60
2019-03-20T16:18:35.471Z,62.55
2019-03-20T16:21:07.603Z,61.00
2019-03-20T16:23:39.715Z,67.05
2019-03-20T16:26:12.048Z,60.63
2019-03-20T16:28:44.226Z,61.58
2019-03-20T16:31:19.778Z,61.53
2019-03-20T16:33:51.906Z,65.70
2019-03-20T16:36:30.112Z,66.90
2019-03-20T16:39:14.940Z,65.30
2019-03-20T16:41:55.424Z,71.30
2019-03-20T16:44:27.758Z,59.95
2019-03-20T16:46:59.490Z,66.42
2019-03-20T16:49:32.162Z,61.60
2019-03-20T16:52:04.087Z,61.05
2019-03-20T16:54:35.952Z,63.42
2019-03-20T16:57:08.513Z,66.87
2019-03-20T16:59:40.545Z,60.85
2019-03-20T17:02:15.043Z,59.25
2019-03-20T17:04:47.108Z,68.35
2019-03-20T17:07:19.562Z,60.55
2019-03-20T17:09:53.158Z,62.13
2019-03-20T17:12:25.536Z,62.13
2019-03-20T17:14:57.679Z,57.30
2019-03-20T17:17:29.768Z,59.25
2019-03-20T17:20:02.195Z,63.25
2019-03-20T17:22:41.779Z,58.70
2019-03-20T17:25:11.569Z,65.70
2019-03-20T17:27:43.696Z,61.20
2019-03-20T17:30:21.246Z,65.05
2019-03-20T17:32:53.383Z,63.17
2019-03-20T17:35:25.935Z,53.55
2019-03-20T17:37:57.969Z,63.58
2019-03-20T17:40:31.318Z,63.20
2019-03-20T17:43:04.930Z,54.20
2019-03-20T17:45:37.532Z,60.73
2019-03-20T17:48:10.208Z,56.42
2019-03-20T17:50:42.579Z,58.35
2019-03-20T17:53:15.947Z,64.10
2019-03-20T17:55:48.103Z,57.88
2019-03-20T17:58:20.129Z,61.83
2019-03-20T18:00:54.242Z,54.75
2019-03-20T18:03:27.651Z,56.55
2019-03-20T18:06:00.095Z,60.48
2019-03-20T18:08:32.098Z,59.15
2019-03-20T18:11:04.071Z,58.45
2019-03-20T18:13:36.323Z,54.13
2019-03-20T18:16:08.400Z,55.88
2019-03-20T18:18:40.845Z,61.10
2019-03-20T18:21:13.833Z,61.77
2019-03-20T18:23:45.978Z,60.40
2019-03-20T18:26:17.960Z,52.03
2019-03-20T18:28:50.143Z,57.30
2019-03-20T18:31:22.221Z,54.30
2019-03-20T18:33:54.238Z,56.83
2019-03-20T18:36:26.522Z,61.85
2019-03-20T18:38:58.627Z,63.05
2019-03-20T18:41:31.314Z,58.40
2019-03-20T18:44:03.646Z,57.73
2019-03-20T18:46:35.868Z,64.82
2019-03-20T18:49:07.875Z,63.35
2019-03-20T18:51:40.905Z,54.15
2019-03-20T18:54:13.393Z,55.58
2019-03-20T18:56:45.575Z,58.15
2019-03-20T18:59:17.920Z,67.70
2019-03-20T19:01:50.088Z,56.90
2019-03-20T19:04:23.903Z,61.37
2019-03-20T19:06:56.031Z,60.90
2019-03-20T19:09:28.751Z,54.83
2019-03-20T19:12:08.506Z,60.90
2019-03-20T19:14:37.704Z,57.33
2019-03-20T19:17:09.878Z,58.70
2019-03-20T19:19:42.240Z,52.67
2019-03-20T19:22:14.647Z,56.60
2019-03-20T19:24:46.618Z,56.73
2019-03-20T19:27:18.900Z,57.38
2019-03-20T19:29:51.493Z,60.98
2019-03-20T19:32:23.907Z,66.53
2019-03-20T19:34:55.834Z,55.70
2019-03-20T19:37:28.688Z,58.73
2019-03-20T19:40:01.027Z,51.75
2019-03-20T19:42:33.977Z,55.88
2019-03-20T19:45:08.558Z,57.13
2019-03-20T19:47:40.708Z,58.85
2019-03-20T19:50:16.658Z,55.95
2019-03-20T19:52:48.630Z,53.65
2019-03-20T19:55:21.004Z,53.15
2019-03-20T19:57:53.473Z,52.78
2019-03-20T20:00:28.045Z,58.92
2019-03-20T20:03:00.477Z,58.90
2019-03-20T20:05:33.805Z,57.20
2019-03-20T20:08:06.021Z,60.85
2019-03-20T20:10:38.234Z,57.60
2019-03-20T20:13:10.500Z,59.20
2019-03-20T20:15:42.917Z,62.80
2019-03-20T20:18:34.597Z,64.32
2019-03-20T20:21:07.016Z,60.80
2019-03-20T20:23:39.281Z,66.87
2019-03-20T20:26:11.290Z,62.88
2019-03-20T20:28:53.080Z,61.73
2019-03-20T20:31:28.197Z,66.87
2019-03-20T20:34:00.383Z,57.88
2019-03-20T20:36:32.514Z,55.75
2019-03-20T20:39:05.321Z,56.50
2019-03-20T20:41:38.609Z,60.50
2019-03-20T20:44:10.755Z,55.08
2019-03-20T20:46:43.846Z,55.45
2019-03-20T20:49:16.590Z,50.98
2019-03-20T20:51:48.977Z,51.35
2019-03-20T20:54:21.037Z,54.75
2019-03-20T20:56:53.378Z,48.85
2019-03-20T20:59:25.339Z,48.33
2019-03-20T21:01:57.341Z,50.00
2019-03-20T21:04:29.927Z,53.02
2019-03-20T21:07:03.630Z,53.45
2019-03-20T21:09:36.141Z,54.73
2019-03-20T21:12:08.428Z,52.43
2019-03-20T21:14:40.605Z,53.35
2019-03-20T21:17:16.826Z,58.58
2019-03-20T21:19:49.061Z,52.05
2019-03-20T21:22:24.945Z,57.25
2019-03-20T21:24:57.217Z,52.05
2019-03-20T21:27:33.379Z,55.73
2019-03-20T21:30:09.224Z,52.15
2019-03-20T21:32:44.993Z,52.58
2019-03-20T21:35:20.520Z,54.48
2019-03-20T21:37:56.805Z,50.92
2019-03-20T21:40:28.969Z,51.08
2019-03-20T21:43:07.276Z,54.13
2019-03-20T21:45:43.226Z,56.35
2019-03-20T21:48:15.813Z,59.20
2019-03-20T21:50:52.990Z,64.10
2019-03-20T21:53:29.497Z,55.25
2019-03-20T21:56:05.331Z,56.68
2019-03-20T21:58:41.901Z,60.75
2019-03-20T22:01:17.447Z,62.00
2019-03-20T22:03:49.485Z,50.80
2019-03-20T22:06:25.159Z,52.23
2019-03-20T22:08:58.364Z,53.78
2019-03-20T22:11:33.934Z,52.67
2019-03-20T22:14:10.380Z,49.27
2019-03-20T22:16:46.140Z,48.70
2019-03-20T22:19:22.199Z,49.15
2019-03-20T22:21:58.289Z,49.83
2019-03-20T22:24:34.931Z,59.73
2019-03-20T22:27:10.638Z,53.98
2019-03-20T22:29:44.431Z,60.33
2019-03-20T22:32:19.916Z,55.00
2019-03-20T22:34:56.003Z,57.43
2019-03-20T22:37:28.148Z,64.22
2019-03-20T22:40:04.547Z,60.48
2019-03-20T22:42:40.306Z,59.75
2019-03-20T22:45:16.234Z,56.02
2019-03-20T22:47:52.105Z,57.78
2019-03-20T22:50:27.846Z,59.38
2019-03-20T22:53:03.569Z,61.48
2019-03-20T22:55:40.426Z,56.23
2019-03-20T22:58:16.223Z,58.25
2019-03-20T23:00:52.394Z,57.30
2019-03-20T23:03:28.151Z,58.80
2019-03-20T23:06:00.752Z,63.58
2019-03-20T23:08:32.981Z,63.05
2019-03-20T23:11:07.331Z,64.47
2019-03-20T23:13:41.820Z,64.77
2019-03-20T23:16:17.131Z,67.08
2019-03-20T23:18:49.145Z,57.98
2019-03-20T23:21:21.479Z,62.48
2019-03-20T23:23:54.075Z,58.80
2019-03-20T23:26:26.206Z,62.70
2019-03-20T23:28:58.129Z,53.38
2019-03-20T23:31:30.409Z,61.92
2019-03-20T23:34:02.685Z,59.27
2019-03-20T23:36:34.681Z,64.55
2019-03-20T23:39:08.829Z,63.92
2019-03-20T23:41:40.967Z,65.00
2019-03-20T23:44:12.993Z,74.58
2019-03-20T23:46:48.511Z,76.35
2019-03-20T23:49:24.409Z,65.32
2019-03-20T23:51:58.337Z,63.75
2019-03-20T23:54:34.179Z,69.85
2019-03-20T23:57:06.727Z,65.65
2019-03-20T23:59:38.767Z,59.48
